sensor_id;sensor_type;location;lat;lon;timestamp;temperature;humidity
5759;DHT22;2904;48.788;9.196;2022-08-19T00:01:38;22.00;99.90
5759;DHT22;2904;48.788;9.196;2022-08-19T00:04:09;22.00;99.90
5759;DHT22;2904;48.788;9.196;2022-08-19T00:06:38;22.00;99.90
5759;DHT22;2904;48.788;9.196;2022-08-19T00:09:07;21.80;99.90
5759;DHT22;2904;48.788;9.196;2022-08-19T00:11:34;22.10;99.90
5759;DHT22;2904;48.788;9.196;2022-08-19T00:14:02;21.80;99.90
5759;DHT22;2904;48.788;9.196;2022-08-19T00:16:28;21.80;99.90
5759;DHT22;2904;48.788;9.196;2022-08-19T00:18:54;21.70;99.90
5759;DHT22;2904;48.788;9.196;2022-08-19T00:21:24;21.70;99.90
5759;DHT22;2904;48.788;9.196;2022-08-19T00:23:50;21.70;99.90
5759;DHT22;2904;48.788;9.196;2022-08-19T00:26:15;21.70;99.90
5759;DHT22;2904;48.788;9.196;2022-08-19T00:28:41;21.70;99.90
5759;DHT22;2904;48.788;9.196;2022-08-19T00:31:08;21.70;99.90
5759;DHT22;2904;48.788;9.196;2022-08-19T00:33:34;21.60;99.90
5759;DHT22;2904;48.788;9.196;2022-08-19T00:36:02;21.60;99.90
5759;DHT22;2904;48.788;9.196;2022-08-19T00:38:30;21.60;99.90
5759;DHT22;2904;48.788;9.196;2022-08-19T00:40:55;21.60;99.90
5759;DHT22;2904;48.788;9.196;2022-08-19T00:43:23;21.50;99.90
5759;DHT22;2904;48.788;9.196;2022-08-19T00:45:49;21.50;99.90
5759;DHT22;2904;48.788;9.196;2022-08-19T00:48:16;21.50;99.90
5759;DHT22;2904;48.788;9.196;2022-08-19T00:50:42;21.50;99.90
5759;DHT22;2904;48.788;9.196;2022-08-19T00:53:10;21.50;99.90
5759;DHT22;2904;48.788;9.196;2022-08-19T00:55:37;21.50;99.90
5759;DHT22;2904;48.788;9.196;2022-08-19T00:58:08;21.60;99.90
5759;DHT22;2904;48.788;9.196;2022-08-19T01:00:36;21.50;99.90
5759;DHT22;2904;48.788;9.196;2022-08-19T01:03:08;21.60;99.90
5759;DHT22;2904;48.788;9.196;2022-08-19T01:05:35;21.60;99.90
5759;DHT22;2904;48.788;9.196;2022-08-19T01:08:03;21.60;99.90
5759;DHT22;2904;48.788;9.196;2022-08-19T01:10:32;21.60;99.90
5759;DHT22;2904;48.788;9.196;2022-08-19T01:13:00;21.50;99.90
5759;DHT22;2904;48.788;9.196;2022-08-19T01:15:31;21.50;99.90
5759;DHT22;2904;48.788;9.196;2022-08-19T01:18:04;21.50;99.90
5759;DHT22;2904;48.788;9.196;2022-08-19T01:20:31;21.50;99.90
5759;DHT22;2904;48.788;9.196;2022-08-19T01:22:59;21.50;99.90
5759;DHT22;2904;48.788;9.196;2022-08-19T01:25:44;21.50;99.90
5759;DHT22;2904;48.788;9.196;2022-08-19T01:28:24;21.60;99.90
5759;DHT22;2904;48.788;9.196;2022-08-19T01:30:54;21.60;99.90
5759;DHT22;2904;48.788;9.196;2022-08-19T01:33:21;21.60;99.90
5759;DHT22;2904;48.788;9.196;2022-08-19T01:35:47;21.60;99.90
5759;DHT22;2904;48.788;9.196;2022-08-19T01:38:24;21.60;99.90
5759;DHT22;2904;48.788;9.196;2022-08-19T01:40:50;21.50;99.90
5759;DHT22;2904;48.788;9.196;2022-08-19T01:43:16;21.50;99.90
5759;DHT22;2904;48.788;9.196;2022-08-19T01:45:43;21.60;99.90
5759;DHT22;2904;48.788;9.196;2022-08-19T01:48:09;21.60;99.90
5759;DHT22;2904;48.788;9.196;2022-08-19T01:50:35;21.60;99.90
5759;DHT22;2904;48.788;9.196;2022-08-19T01:53:03;21.60;99.90
5759;DHT22;2904;48.788;9.196;2022-08-19T01:55:29;21.50;99.90
5759;DHT22;2904;48.788;9.196;2022-08-19T01:58:00;21.50;99.90
5759;DHT22;2904;48.788;9.196;2022-08-19T02:00:30;21.50;99.90
5759;DHT22;2904;48.788;9.196;2022-08-19T02:02:56;21.40;99.90
5759;DHT22;2904;48.788;9.196;2022-08-19T02:05:22;21.40;99.90
5759;DHT22;2904;48.788;9.196;2022-08-19T02:07:48;21.00;99.90
5759;DHT22;2904;48.788;9.196;2022-08-19T02:10:17;21.30;99.90
5759;DHT22;2904;48.788;9.196;2022-08-19T02:12:43;21.30;99.90
5759;DHT22;2904;48.788;9.196;2022-08-19T02:15:09;21.30;99.90
5759;DHT22;2904;48.788;9.196;2022-08-19T02:17:37;21.30;99.90
5759;DHT22;2904;48.788;9.196;2022-08-19T02:20:04;21.30;99.90
5759;DHT22;2904;48.788;9.196;2022-08-19T02:22:31;21.30;99.90
5759;DHT22;2904;48.788;9.196;2022-08-19T02:24:56;21.30;99.90
5759;DHT22;2904;48.788;9.196;2022-08-19T02:27:22;21.20;99.90
5759;DHT22;2904;48.788;9.196;2022-08-19T02:29:49;21.20;99.90
5759;DHT22;2904;48.788;9.196;2022-08-19T02:32:17;21.20;99.90
5759;DHT22;2904;48.788;9.196;2022-08-19T02:34:44;21.20;99.90
5759;DHT22;2904;48.788;9.196;2022-08-19T02:37:10;21.10;99.90
5759;DHT22;2904;48.788;9.196;2022-08-19T02:40:54;21.20;99.90
5759;DHT22;2904;48.788;9.196;2022-08-19T02:43:21;21.10;99.90
5759;DHT22;2904;48.788;9.196;2022-08-19T02:45:48;21.10;99.90
5759;DHT22;2904;48.788;9.196;2022-08-19T02:48:16;21.10;99.90
5759;DHT22;2904;48.788;9.196;2022-08-19T02:50:43;21.10;99.90
5759;DHT22;2904;48.788;9.196;2022-08-19T02:53:09;21.00;99.90
5759;DHT22;2904;48.788;9.196;2022-08-19T02:55:35;21.00;99.90
5759;DHT22;2904;48.788;9.196;2022-08-19T02:58:01;20.90;99.90
5759;DHT22;2904;48.788;9.196;2022-08-19T03:00:27;21.00;99.90
5759;DHT22;2904;48.788;9.196;2022-08-19T03:02:53;20.90;99.90
5759;DHT22;2904;48.788;9.196;2022-08-19T03:05:19;20.90;99.90
5759;DHT22;2904;48.788;9.196;2022-08-19T03:07:44;20.90;99.90
5759;DHT22;2904;48.788;9.196;2022-08-19T03:10:12;20.90;99.90
5759;DHT22;2904;48.788;9.196;2022-08-19T03:12:39;20.80;99.90
5759;DHT22;2904;48.788;9.196;2022-08-19T03:15:06;20.80;99.90
5759;DHT22;2904;48.788;9.196;2022-08-19T03:17:33;20.80;99.90
5759;DHT22;2904;48.788;9.196;2022-08-19T03:20:00;20.80;99.90
5759;DHT22;2904;48.788;9.196;2022-08-19T03:22:26;20.80;99.90
5759;DHT22;2904;48.788;9.196;2022-08-19T03:24:51;20.70;99.90
5759;DHT22;2904;48.788;9.196;2022-08-19T03:27:17;20.70;99.90
5759;DHT22;2904;48.788;9.196;2022-08-19T03:29:43;20.70;99.90
5759;DHT22;2904;48.788;9.196;2022-08-19T03:32:09;20.70;99.90
5759;DHT22;2904;48.788;9.196;2022-08-19T03:34:37;20.70;99.90
5759;DHT22;2904;48.788;9.196;2022-08-19T03:37:06;20.70;99.90
5759;DHT22;2904;48.788;9.196;2022-08-19T03:39:32;20.60;99.90
5759;DHT22;2904;48.788;9.196;2022-08-19T03:41:58;20.60;99.90
5759;DHT22;2904;48.788;9.196;2022-08-19T03:44:28;20.60;99.90
5759;DHT22;2904;48.788;9.196;2022-08-19T03:46:56;20.60;99.90
5759;DHT22;2904;48.788;9.196;2022-08-19T03:49:24;20.60;99.90
5759;DHT22;2904;48.788;9.196;2022-08-19T03:51:53;20.60;99.90
5759;DHT22;2904;48.788;9.196;2022-08-19T03:54:20;20.60;99.90
5759;DHT22;2904;48.788;9.196;2022-08-19T03:56:48;20.60;99.90
5759;DHT22;2904;48.788;9.196;2022-08-19T03:59:18;20.50;99.90
5759;DHT22;2904;48.788;9.196;2022-08-19T04:01:44;20.50;99.90
5759;DHT22;2904;48.788;9.196;2022-08-19T04:04:11;20.50;99.90
5759;DHT22;2904;48.788;9.196;2022-08-19T04:06:38;20.50;99.90
5759;DHT22;2904;48.788;9.196;2022-08-19T04:09:05;20.50;99.90
5759;DHT22;2904;48.788;9.196;2022-08-19T04:11:35;20.50;99.90
5759;DHT22;2904;48.788;9.196;2022-08-19T04:14:04;20.60;99.90
5759;DHT22;2904;48.788;9.196;2022-08-19T04:16:30;20.70;99.90
5759;DHT22;2904;48.788;9.196;2022-08-19T04:18:56;20.60;99.90
5759;DHT22;2904;48.788;9.196;2022-08-19T04:21:24;20.60;99.90
5759;DHT22;2904;48.788;9.196;2022-08-19T04:23:51;20.60;99.90
5759;DHT22;2904;48.788;9.196;2022-08-19T04:26:20;20.40;99.90
5759;DHT22;2904;48.788;9.196;2022-08-19T04:28:46;20.40;99.90
5759;DHT22;2904;48.788;9.196;2022-08-19T04:31:21;20.50;99.90
5759;DHT22;2904;48.788;9.196;2022-08-19T04:33:48;20.40;99.90
5759;DHT22;2904;48.788;9.196;2022-08-19T04:36:20;20.40;99.90
5759;DHT22;2904;48.788;9.196;2022-08-19T04:38:47;20.30;99.90
5759;DHT22;2904;48.788;9.196;2022-08-19T04:41:14;20.40;99.90
5759;DHT22;2904;48.788;9.196;2022-08-19T04:43:59;20.40;99.90
5759;DHT22;2904;48.788;9.196;2022-08-19T04:46:24;20.30;99.90
5759;DHT22;2904;48.788;9.196;2022-08-19T04:48:50;20.40;99.90
5759;DHT22;2904;48.788;9.196;2022-08-19T04:51:16;20.40;99.90
5759;DHT22;2904;48.788;9.196;2022-08-19T04:53:42;20.40;99.90
5759;DHT22;2904;48.788;9.196;2022-08-19T04:56:13;20.50;99.90
5759;DHT22;2904;48.788;9.196;2022-08-19T04:58:41;20.50;99.90
5759;DHT22;2904;48.788;9.196;2022-08-19T05:01:11;20.50;99.90
5759;DHT22;2904;48.788;9.196;2022-08-19T05:03:37;20.50;99.90
5759;DHT22;2904;48.788;9.196;2022-08-19T05:06:12;20.50;99.90
5759;DHT22;2904;48.788;9.196;2022-08-19T05:08:39;20.50;99.90
5759;DHT22;2904;48.788;9.196;2022-08-19T05:11:29;20.40;99.90
5759;DHT22;2904;48.788;9.196;2022-08-19T05:13:55;20.40;99.90
5759;DHT22;2904;48.788;9.196;2022-08-19T05:16:24;20.50;99.90
5759;DHT22;2904;48.788;9.196;2022-08-19T05:18:49;20.50;99.90
5759;DHT22;2904;48.788;9.196;2022-08-19T05:21:35;20.50;99.90
5759;DHT22;2904;48.788;9.196;2022-08-19T05:24:20;20.50;99.90
5759;DHT22;2904;48.788;9.196;2022-08-19T05:26:48;20.50;99.90
5759;DHT22;2904;48.788;9.196;2022-08-19T05:29:16;20.50;99.90
5759;DHT22;2904;48.788;9.196;2022-08-19T05:31:43;20.50;99.90
5759;DHT22;2904;48.788;9.196;2022-08-19T05:34:09;20.50;99.90
5759;DHT22;2904;48.788;9.196;2022-08-19T05:36:41;20.60;99.90
5759;DHT22;2904;48.788;9.196;2022-08-19T05:39:10;20.60;99.90
5759;DHT22;2904;48.788;9.196;2022-08-19T05:41:37;20.50;99.90
5759;DHT22;2904;48.788;9.196;2022-08-19T05:44:06;20.50;99.90
5759;DHT22;2904;48.788;9.196;2022-08-19T05:46:35;20.50;99.90
5759;DHT22;2904;48.788;9.196;2022-08-19T05:49:03;17.80;99.90
5759;DHT22;2904;48.788;9.196;2022-08-19T05:51:30;20.40;99.90
5759;DHT22;2904;48.788;9.196;2022-08-19T05:53:56;20.40;99.90
5759;DHT22;2904;48.788;9.196;2022-08-19T05:56:23;20.40;99.90
5759;DHT22;2904;48.788;9.196;2022-08-19T05:58:48;20.40;99.90
5759;DHT22;2904;48.788;9.196;2022-08-19T06:01:17;20.40;99.90
5759;DHT22;2904;48.788;9.196;2022-08-19T06:03:43;20.40;99.90
5759;DHT22;2904;48.788;9.196;2022-08-19T06:06:11;20.40;99.90
5759;DHT22;2904;48.788;9.196;2022-08-19T06:08:38;20.50;99.90
5759;DHT22;2904;48.788;9.196;2022-08-19T06:11:35;20.60;99.90
5759;DHT22;2904;48.788;9.196;2022-08-19T06:14:07;20.60;99.90
5759;DHT22;2904;48.788;9.196;2022-08-19T06:16:35;20.60;99.90
5759;DHT22;2904;48.788;9.196;2022-08-19T06:19:05;20.60;99.90
5759;DHT22;2904;48.788;9.196;2022-08-19T06:21:32;20.60;99.90
5759;DHT22;2904;48.788;9.196;2022-08-19T06:23:58;20.60;99.90
5759;DHT22;2904;48.788;9.196;2022-08-19T06:26:24;20.60;99.90
5759;DHT22;2904;48.788;9.196;2022-08-19T06:28:51;20.60;99.90
5759;DHT22;2904;48.788;9.196;2022-08-19T06:31:20;20.60;99.90
5759;DHT22;2904;48.788;9.196;2022-08-19T06:33:46;20.60;99.90
5759;DHT22;2904;48.788;9.196;2022-08-19T06:36:21;20.60;99.90
5759;DHT22;2904;48.788;9.196;2022-08-19T06:38:49;20.60;99.90
5759;DHT22;2904;48.788;9.196;2022-08-19T06:41:15;20.60;99.90
5759;DHT22;2904;48.788;9.196;2022-08-19T06:43:40;20.60;99.90
5759;DHT22;2904;48.788;9.196;2022-08-19T06:46:13;20.50;99.90
5759;DHT22;2904;48.788;9.196;2022-08-19T06:48:40;20.50;99.90
5759;DHT22;2904;48.788;9.196;2022-08-19T06:51:06;20.50;99.90
5759;DHT22;2904;48.788;9.196;2022-08-19T06:53:32;20.40;99.90
5759;DHT22;2904;48.788;9.196;2022-08-19T06:55:58;20.40;99.90
5759;DHT22;2904;48.788;9.196;2022-08-19T06:58:26;20.50;99.90
5759;DHT22;2904;48.788;9.196;2022-08-19T07:00:51;20.50;99.90
5759;DHT22;2904;48.788;9.196;2022-08-19T07:03:17;20.50;99.90
5759;DHT22;2904;48.788;9.196;2022-08-19T07:05:43;20.50;99.90
5759;DHT22;2904;48.788;9.196;2022-08-19T07:08:09;20.40;99.90
5759;DHT22;2904;48.788;9.196;2022-08-19T07:10:38;20.40;99.90
5759;DHT22;2904;48.788;9.196;2022-08-19T07:13:07;20.40;99.90
5759;DHT22;2904;48.788;9.196;2022-08-19T07:15:33;20.40;99.90
5759;DHT22;2904;48.788;9.196;2022-08-19T07:17:58;20.40;99.90
5759;DHT22;2904;48.788;9.196;2022-08-19T07:20:24;20.40;99.90
5759;DHT22;2904;48.788;9.196;2022-08-19T07:22:49;20.50;99.90
5759;DHT22;2904;48.788;9.196;2022-08-19T07:25:16;20.50;99.90
5759;DHT22;2904;48.788;9.196;2022-08-19T07:27:43;20.50;99.90
5759;DHT22;2904;48.788;9.196;2022-08-19T07:30:10;20.50;99.90
5759;DHT22;2904;48.788;9.196;2022-08-19T07:32:37;20.40;99.90
5759;DHT22;2904;48.788;9.196;2022-08-19T07:35:03;17.10;99.90
5759;DHT22;2904;48.788;9.196;2022-08-19T07:37:30;20.50;99.90
5759;DHT22;2904;48.788;9.196;2022-08-19T07:39:55;20.40;99.90
5759;DHT22;2904;48.788;9.196;2022-08-19T07:42:21;20.40;99.90
5759;DHT22;2904;48.788;9.196;2022-08-19T07:44:46;20.40;99.90
5759;DHT22;2904;48.788;9.196;2022-08-19T07:47:12;20.40;99.90
5759;DHT22;2904;48.788;9.196;2022-08-19T07:49:40;20.40;99.90
5759;DHT22;2904;48.788;9.196;2022-08-19T07:52:08;20.50;99.90
5759;DHT22;2904;48.788;9.196;2022-08-19T07:54:36;20.50;99.90
5759;DHT22;2904;48.788;9.196;2022-08-19T07:57:03;20.50;99.90
5759;DHT22;2904;48.788;9.196;2022-08-19T07:59:30;20.50;99.90
5759;DHT22;2904;48.788;9.196;2022-08-19T08:01:57;20.50;99.90
5759;DHT22;2904;48.788;9.196;2022-08-19T08:04:24;20.50;99.90
5759;DHT22;2904;48.788;9.196;2022-08-19T08:07:09;20.50;99.90
5759;DHT22;2904;48.788;9.196;2022-08-19T08:09:53;20.50;99.90
5759;DHT22;2904;48.788;9.196;2022-08-19T08:12:22;20.40;99.90
5759;DHT22;2904;48.788;9.196;2022-08-19T08:14:52;20.30;99.90
5759;DHT22;2904;48.788;9.196;2022-08-19T08:17:20;20.20;99.90
5759;DHT22;2904;48.788;9.196;2022-08-19T08:19:48;20.10;99.90
5759;DHT22;2904;48.788;9.196;2022-08-19T08:22:17;20.10;99.90
5759;DHT22;2904;48.788;9.196;2022-08-19T08:25:08;20.10;99.90
5759;DHT22;2904;48.788;9.196;2022-08-19T08:27:38;20.10;99.90
5759;DHT22;2904;48.788;9.196;2022-08-19T08:30:09;20.10;99.90
5759;DHT22;2904;48.788;9.196;2022-08-19T08:32:37;20.10;99.90
5759;DHT22;2904;48.788;9.196;2022-08-19T08:35:04;20.10;99.90
5759;DHT22;2904;48.788;9.196;2022-08-19T08:37:30;20.20;99.90
5759;DHT22;2904;48.788;9.196;2022-08-19T08:39:56;20.20;99.90
5759;DHT22;2904;48.788;9.196;2022-08-19T08:42:34;20.20;99.90
5759;DHT22;2904;48.788;9.196;2022-08-19T08:45:14;20.20;99.90
5759;DHT22;2904;48.788;9.196;2022-08-19T08:47:44;20.10;99.90
5759;DHT22;2904;48.788;9.196;2022-08-19T08:50:20;20.10;99.90
5759;DHT22;2904;48.788;9.196;2022-08-19T08:52:51;20.10;99.90
5759;DHT22;2904;48.788;9.196;2022-08-19T08:55:22;20.30;99.90
5759;DHT22;2904;48.788;9.196;2022-08-19T08:58:39;20.30;99.90
5759;DHT22;2904;48.788;9.196;2022-08-19T09:01:11;20.40;99.90
5759;DHT22;2904;48.788;9.196;2022-08-19T09:03:39;20.50;99.90
5759;DHT22;2904;48.788;9.196;2022-08-19T09:08:49;20.50;99.90
5759;DHT22;2904;48.788;9.196;2022-08-19T09:11:25;20.60;99.90
5759;DHT22;2904;48.788;9.196;2022-08-19T09:14:15;20.60;99.90
5759;DHT22;2904;48.788;9.196;2022-08-19T09:16:43;20.60;99.90
5759;DHT22;2904;48.788;9.196;2022-08-19T09:19:09;20.70;99.90
5759;DHT22;2904;48.788;9.196;2022-08-19T09:21:36;20.70;99.90
5759;DHT22;2904;48.788;9.196;2022-08-19T09:24:02;20.80;99.90
5759;DHT22;2904;48.788;9.196;2022-08-19T09:26:30;20.80;99.90
5759;DHT22;2904;48.788;9.196;2022-08-19T09:29:00;20.80;99.90
5759;DHT22;2904;48.788;9.196;2022-08-19T09:31:29;20.90;99.90
5759;DHT22;2904;48.788;9.196;2022-08-19T09:33:55;20.90;99.90
5759;DHT22;2904;48.788;9.196;2022-08-19T09:36:26;20.90;99.90
5759;DHT22;2904;48.788;9.196;2022-08-19T09:38:52;21.00;99.90
5759;DHT22;2904;48.788;9.196;2022-08-19T09:41:21;21.00;99.90
5759;DHT22;2904;48.788;9.196;2022-08-19T09:43:50;21.10;99.90
5759;DHT22;2904;48.788;9.196;2022-08-19T09:46:22;21.20;99.90
5759;DHT22;2904;48.788;9.196;2022-08-19T09:48:49;21.20;99.90
5759;DHT22;2904;48.788;9.196;2022-08-19T09:51:24;21.30;99.90
5759;DHT22;2904;48.788;9.196;2022-08-19T09:53:51;21.40;99.90
5759;DHT22;2904;48.788;9.196;2022-08-19T09:56:20;21.50;99.90
5759;DHT22;2904;48.788;9.196;2022-08-19T09:58:47;21.50;99.90
5759;DHT22;2904;48.788;9.196;2022-08-19T10:01:19;23.60;99.90
5759;DHT22;2904;48.788;9.196;2022-08-19T10:03:48;21.80;99.90
5759;DHT22;2904;48.788;9.196;2022-08-19T10:06:15;21.60;99.90
5759;DHT22;2904;48.788;9.196;2022-08-19T10:08:41;21.60;99.90
5759;DHT22;2904;48.788;9.196;2022-08-19T10:11:07;21.60;99.90
5759;DHT22;2904;48.788;9.196;2022-08-19T10:13:34;21.70;99.90
5759;DHT22;2904;48.788;9.196;2022-08-19T10:16:23;21.70;99.90
5759;DHT22;2904;48.788;9.196;2022-08-19T10:18:51;21.70;99.90
5759;DHT22;2904;48.788;9.196;2022-08-19T10:21:29;21.80;99.90
5759;DHT22;2904;48.788;9.196;2022-08-19T10:23:56;21.80;99.90
5759;DHT22;2904;48.788;9.196;2022-08-19T10:26:29;21.80;99.90
5759;DHT22;2904;48.788;9.196;2022-08-19T10:28:56;21.80;99.90
5759;DHT22;2904;48.788;9.196;2022-08-19T10:31:24;21.80;99.90
5759;DHT22;2904;48.788;9.196;2022-08-19T10:33:51;21.90;99.90
5759;DHT22;2904;48.788;9.196;2022-08-19T10:36:25;21.90;99.90
5759;DHT22;2904;48.788;9.196;2022-08-19T10:38:52;21.90;99.90
5759;DHT22;2904;48.788;9.196;2022-08-19T10:41:25;22.00;99.90
5759;DHT22;2904;48.788;9.196;2022-08-19T10:43:56;22.10;99.90
5759;DHT22;2904;48.788;9.196;2022-08-19T10:46:25;22.20;99.90
5759;DHT22;2904;48.788;9.196;2022-08-19T10:48:52;22.20;99.90
5759;DHT22;2904;48.788;9.196;2022-08-19T10:51:19;22.30;99.90
5759;DHT22;2904;48.788;9.196;2022-08-19T10:54:04;22.40;99.90
5759;DHT22;2904;48.788;9.196;2022-08-19T10:56:30;22.50;99.90
5759;DHT22;2904;48.788;9.196;2022-08-19T10:59:15;22.50;99.90
5759;DHT22;2904;48.788;9.196;2022-08-19T11:01:43;22.50;99.90
5759;DHT22;2904;48.788;9.196;2022-08-19T11:04:09;22.40;99.90
5759;DHT22;2904;48.788;9.196;2022-08-19T11:06:37;22.40;99.90
5759;DHT22;2904;48.788;9.196;2022-08-19T11:09:04;22.40;99.90
5759;DHT22;2904;48.788;9.196;2022-08-19T11:11:31;22.30;99.90
5759;DHT22;2904;48.788;9.196;2022-08-19T11:13:58;22.40;99.90
5759;DHT22;2904;48.788;9.196;2022-08-19T11:16:25;22.40;99.90
5759;DHT22;2904;48.788;9.196;2022-08-19T11:18:54;22.40;99.90
5759;DHT22;2904;48.788;9.196;2022-08-19T11:21:25;22.40;99.90
5759;DHT22;2904;48.788;9.196;2022-08-19T11:23:54;22.40;99.90
5759;DHT22;2904;48.788;9.196;2022-08-19T11:26:22;22.60;99.90
5759;DHT22;2904;48.788;9.196;2022-08-19T11:28:49;22.70;99.90
5759;DHT22;2904;48.788;9.196;2022-08-19T11:31:19;22.80;99.90
5759;DHT22;2904;48.788;9.196;2022-08-19T11:33:45;22.90;99.90
5759;DHT22;2904;48.788;9.196;2022-08-19T11:36:12;22.90;99.90
5759;DHT22;2904;48.788;9.196;2022-08-19T11:38:38;22.90;99.90
5759;DHT22;2904;48.788;9.196;2022-08-19T11:41:06;22.90;99.90
5759;DHT22;2904;48.788;9.196;2022-08-19T11:43:33;23.10;99.90
5759;DHT22;2904;48.788;9.196;2022-08-19T11:45:59;23.10;99.90
5759;DHT22;2904;48.788;9.196;2022-08-19T11:48:25;23.20;99.90
5759;DHT22;2904;48.788;9.196;2022-08-19T11:50:54;23.20;99.90
5759;DHT22;2904;48.788;9.196;2022-08-19T11:53:23;23.50;99.90
5759;DHT22;2904;48.788;9.196;2022-08-19T11:55:52;23.20;99.90
5759;DHT22;2904;48.788;9.196;2022-08-19T11:58:21;23.30;99.90
5759;DHT22;2904;48.788;9.196;2022-08-19T12:00:47;23.30;99.90
5759;DHT22;2904;48.788;9.196;2022-08-19T12:03:14;23.40;99.90
5759;DHT22;2904;48.788;9.196;2022-08-19T12:05:40;23.40;99.90
5759;DHT22;2904;48.788;9.196;2022-08-19T12:08:07;23.40;99.90
5759;DHT22;2904;48.788;9.196;2022-08-19T12:10:33;23.40;99.90
5759;DHT22;2904;48.788;9.196;2022-08-19T12:12:59;23.40;99.90
5759;DHT22;2904;48.788;9.196;2022-08-19T12:15:27;23.40;99.90
5759;DHT22;2904;48.788;9.196;2022-08-19T12:17:55;23.40;99.90
5759;DHT22;2904;48.788;9.196;2022-08-19T12:20:23;23.30;99.90
5759;DHT22;2904;48.788;9.196;2022-08-19T12:22:50;23.20;99.90
5759;DHT22;2904;48.788;9.196;2022-08-19T12:25:16;23.10;99.90
5759;DHT22;2904;48.788;9.196;2022-08-19T12:27:43;23.00;99.90
5759;DHT22;2904;48.788;9.196;2022-08-19T12:30:10;22.80;99.90
5759;DHT22;2904;48.788;9.196;2022-08-19T12:32:36;22.70;99.90
5759;DHT22;2904;48.788;9.196;2022-08-19T12:35:03;22.60;99.90
5759;DHT22;2904;48.788;9.196;2022-08-19T12:37:28;22.60;99.90
5759;DHT22;2904;48.788;9.196;2022-08-19T12:39:56;22.50;99.90
5759;DHT22;2904;48.788;9.196;2022-08-19T12:42:22;22.50;99.90
5759;DHT22;2904;48.788;9.196;2022-08-19T12:44:48;22.50;99.90
5759;DHT22;2904;48.788;9.196;2022-08-19T12:47:14;22.50;99.90
5759;DHT22;2904;48.788;9.196;2022-08-19T12:49:40;22.50;99.90
5759;DHT22;2904;48.788;9.196;2022-08-19T12:52:08;22.60;99.90
5759;DHT22;2904;48.788;9.196;2022-08-19T12:54:37;22.60;99.90
5759;DHT22;2904;48.788;9.196;2022-08-19T12:57:07;22.80;99.90
5759;DHT22;2904;48.788;9.196;2022-08-19T12:59:34;22.90;99.90
5759;DHT22;2904;48.788;9.196;2022-08-19T13:02:05;23.00;99.90
5759;DHT22;2904;48.788;9.196;2022-08-19T13:04:33;23.00;99.90
5759;DHT22;2904;48.788;9.196;2022-08-19T13:07:02;23.10;99.90
5759;DHT22;2904;48.788;9.196;2022-08-19T13:09:28;23.10;99.90
5759;DHT22;2904;48.788;9.196;2022-08-19T13:11:53;23.10;99.90
5759;DHT22;2904;48.788;9.196;2022-08-19T13:14:19;23.00;99.90
5759;DHT22;2904;48.788;9.196;2022-08-19T13:16:44;23.00;99.90
5759;DHT22;2904;48.788;9.196;2022-08-19T13:19:10;22.90;99.90
5759;DHT22;2904;48.788;9.196;2022-08-19T13:21:37;22.80;99.90
5759;DHT22;2904;48.788;9.196;2022-08-19T13:24:03;22.80;99.90
5759;DHT22;2904;48.788;9.196;2022-08-19T13:26:28;22.60;99.90
5759;DHT22;2904;48.788;9.196;2022-08-19T13:28:54;22.50;99.90
5759;DHT22;2904;48.788;9.196;2022-08-19T13:31:40;22.50;99.90
5759;DHT22;2904;48.788;9.196;2022-08-19T13:34:31;22.40;99.90
5759;DHT22;2904;48.788;9.196;2022-08-19T13:36:59;22.40;99.90
5759;DHT22;2904;48.788;9.196;2022-08-19T13:39:31;22.40;99.90
5759;DHT22;2904;48.788;9.196;2022-08-19T13:41:58;22.30;99.90
5759;DHT22;2904;48.788;9.196;2022-08-19T13:44:26;22.30;99.90
5759;DHT22;2904;48.788;9.196;2022-08-19T13:47:05;22.30;99.90
5759;DHT22;2904;48.788;9.196;2022-08-19T13:49:32;22.30;99.90
5759;DHT22;2904;48.788;9.196;2022-08-19T13:51:57;22.20;99.90
5759;DHT22;2904;48.788;9.196;2022-08-19T13:54:23;22.10;99.90
5759;DHT22;2904;48.788;9.196;2022-08-19T13:56:49;21.80;99.90
5759;DHT22;2904;48.788;9.196;2022-08-19T13:59:14;21.70;99.90
5759;DHT22;2904;48.788;9.196;2022-08-19T14:01:41;21.70;99.90
5759;DHT22;2904;48.788;9.196;2022-08-19T14:04:07;21.70;99.90
5759;DHT22;2904;48.788;9.196;2022-08-19T14:06:33;21.60;99.90
5759;DHT22;2904;48.788;9.196;2022-08-19T14:08:59;21.50;99.90
5759;DHT22;2904;48.788;9.196;2022-08-19T14:11:25;21.50;99.90
5759;DHT22;2904;48.788;9.196;2022-08-19T14:13:51;21.50;99.90
5759;DHT22;2904;48.788;9.196;2022-08-19T14:16:17;21.40;99.90
5759;DHT22;2904;48.788;9.196;2022-08-19T14:18:43;21.50;99.90
5759;DHT22;2904;48.788;9.196;2022-08-19T14:21:15;21.50;99.90
5759;DHT22;2904;48.788;9.196;2022-08-19T14:23:42;21.60;99.90
5759;DHT22;2904;48.788;9.196;2022-08-19T14:26:10;21.60;99.90
5759;DHT22;2904;48.788;9.196;2022-08-19T14:28:37;21.60;99.90
5759;DHT22;2904;48.788;9.196;2022-08-19T14:31:04;21.60;99.90
5759;DHT22;2904;48.788;9.196;2022-08-19T14:33:30;21.70;99.90
5759;DHT22;2904;48.788;9.196;2022-08-19T14:35:56;21.80;99.90
5759;DHT22;2904;48.788;9.196;2022-08-19T14:38:21;21.90;99.90
5759;DHT22;2904;48.788;9.196;2022-08-19T14:40:47;21.90;99.90
5759;DHT22;2904;48.788;9.196;2022-08-19T14:43:14;22.00;99.90
5759;DHT22;2904;48.788;9.196;2022-08-19T14:45:40;22.20;99.90
5759;DHT22;2904;48.788;9.196;2022-08-19T14:48:07;22.30;99.90
5759;DHT22;2904;48.788;9.196;2022-08-19T14:50:34;22.40;99.90
5759;DHT22;2904;48.788;9.196;2022-08-19T14:53:01;22.40;99.90
5759;DHT22;2904;48.788;9.196;2022-08-19T14:55:27;22.50;99.90
5759;DHT22;2904;48.788;9.196;2022-08-19T14:57:53;22.50;99.90
5759;DHT22;2904;48.788;9.196;2022-08-19T15:00:19;22.50;99.90
5759;DHT22;2904;48.788;9.196;2022-08-19T15:02:44;22.40;99.90
5759;DHT22;2904;48.788;9.196;2022-08-19T15:05:10;22.50;99.90
5759;DHT22;2904;48.788;9.196;2022-08-19T15:07:37;22.50;99.90
5759;DHT22;2904;48.788;9.196;2022-08-19T15:10:04;22.50;99.90
5759;DHT22;2904;48.788;9.196;2022-08-19T15:12:32;22.70;99.90
5759;DHT22;2904;48.788;9.196;2022-08-19T15:14:59;22.80;99.90
5759;DHT22;2904;48.788;9.196;2022-08-19T15:17:25;22.90;99.90
5759;DHT22;2904;48.788;9.196;2022-08-19T15:19:51;23.10;99.90
5759;DHT22;2904;48.788;9.196;2022-08-19T15:22:17;23.30;99.90
5759;DHT22;2904;48.788;9.196;2022-08-19T15:24:43;23.50;99.90
5759;DHT22;2904;48.788;9.196;2022-08-19T15:27:12;23.50;99.90
5759;DHT22;2904;48.788;9.196;2022-08-19T15:29:38;23.60;99.90
5759;DHT22;2904;48.788;9.196;2022-08-19T15:32:04;23.70;99.90
5759;DHT22;2904;48.788;9.196;2022-08-19T15:34:31;23.80;99.90
5759;DHT22;2904;48.788;9.196;2022-08-19T15:36:57;23.60;99.90
5759;DHT22;2904;48.788;9.196;2022-08-19T15:39:24;23.40;99.90
5759;DHT22;2904;48.788;9.196;2022-08-19T15:41:49;23.40;99.90
5759;DHT22;2904;48.788;9.196;2022-08-19T15:44:17;23.40;99.90
5759;DHT22;2904;48.788;9.196;2022-08-19T15:46:45;23.40;99.90
5759;DHT22;2904;48.788;9.196;2022-08-19T15:49:12;23.50;99.90
5759;DHT22;2904;48.788;9.196;2022-08-19T15:51:39;23.70;99.90
5759;DHT22;2904;48.788;9.196;2022-08-19T15:54:08;24.00;99.90
5759;DHT22;2904;48.788;9.196;2022-08-19T15:56:34;24.20;99.90
5759;DHT22;2904;48.788;9.196;2022-08-19T15:59:18;24.30;99.90
5759;DHT22;2904;48.788;9.196;2022-08-19T16:02:03;24.30;99.90
5759;DHT22;2904;48.788;9.196;2022-08-19T16:04:47;24.30;99.90
5759;DHT22;2904;48.788;9.196;2022-08-19T16:07:31;24.40;99.90
5759;DHT22;2904;48.788;9.196;2022-08-19T16:09:56;24.40;99.90
5759;DHT22;2904;48.788;9.196;2022-08-19T16:12:22;24.50;99.90
5759;DHT22;2904;48.788;9.196;2022-08-19T16:14:51;24.50;99.90